sensor_id;sensor_type;location;lat;lon;timestamp;temperature;humidity
34153;DHT22;20426;48.372;10.888;2022-12-22T00:00:14;7.10;99.90
34153;DHT22;20426;48.372;10.888;2022-12-22T00:01:11;7.10;99.90
34153;DHT22;20426;48.372;10.888;2022-12-22T00:02:03;7.20;99.90
34153;DHT22;20426;48.372;10.888;2022-12-22T00:02:56;7.10;99.90
34153;DHT22;20426;48.372;10.888;2022-12-22T00:03:46;7.20;99.90
34153;DHT22;20426;48.372;10.888;2022-12-22T00:04:35;7.10;99.90
34153;DHT22;20426;48.372;10.888;2022-12-22T00:05:24;7.10;99.90
34153;DHT22;20426;48.372;10.888;2022-12-22T00:06:13;7.10;99.90
34153;DHT22;20426;48.372;10.888;2022-12-22T00:07:02;7.10;99.90
34153;DHT22;20426;48.372;10.888;2022-12-22T00:07:52;7.10;99.90
34153;DHT22;20426;48.372;10.888;2022-12-22T00:08:41;7.10;99.90
34153;DHT22;20426;48.372;10.888;2022-12-22T00:09:30;7.00;99.90
34153;DHT22;20426;48.372;10.888;2022-12-22T00:10:20;7.10;99.90
34153;DHT22;20426;48.372;10.888;2022-12-22T00:11:10;7.10;99.90
34153;DHT22;20426;48.372;10.888;2022-12-22T00:12:00;7.00;99.90
34153;DHT22;20426;48.372;10.888;2022-12-22T00:12:49;7.10;99.90
34153;DHT22;20426;48.372;10.888;2022-12-22T00:13:43;7.00;99.90
34153;DHT22;20426;48.372;10.888;2022-12-22T00:14:33;7.00;99.90
34153;DHT22;20426;48.372;10.888;2022-12-22T00:15:22;7.00;99.90
34153;DHT22;20426;48.372;10.888;2022-12-22T00:16:12;7.00;99.90
34153;DHT22;20426;48.372;10.888;2022-12-22T00:17:01;7.00;99.90
34153;DHT22;20426;48.372;10.888;2022-12-22T00:17:51;7.00;99.90
34153;DHT22;20426;48.372;10.888;2022-12-22T00:18:40;7.00;99.90
34153;DHT22;20426;48.372;10.888;2022-12-22T00:19:29;7.00;99.90
34153;DHT22;20426;48.372;10.888;2022-12-22T00:20:19;6.90;99.90
34153;DHT22;20426;48.372;10.888;2022-12-22T00:21:12;7.00;99.90
34153;DHT22;20426;48.372;10.888;2022-12-22T00:22:19;6.90;99.90
34153;DHT22;20426;48.372;10.888;2022-12-22T00:23:09;6.90;99.90
34153;DHT22;20426;48.372;10.888;2022-12-22T00:23:59;6.90;99.90
34153;DHT22;20426;48.372;10.888;2022-12-22T00:24:48;6.90;99.90
34153;DHT22;20426;48.372;10.888;2022-12-22T00:25:37;6.90;99.90
34153;DHT22;20426;48.372;10.888;2022-12-22T00:26:28;6.90;99.90
34153;DHT22;20426;48.372;10.888;2022-12-22T00:27:25;6.90;99.90
34153;DHT22;20426;48.372;10.888;2022-12-22T00:28:16;6.90;99.90
34153;DHT22;20426;48.372;10.888;2022-12-22T00:29:07;6.90;99.90
34153;DHT22;20426;48.372;10.888;2022-12-22T00:30:01;6.90;99.90
34153;DHT22;20426;48.372;10.888;2022-12-22T00:30:51;6.90;99.90
34153;DHT22;20426;48.372;10.888;2022-12-22T00:31:40;6.90;99.90
34153;DHT22;20426;48.372;10.888;2022-12-22T00:32:36;6.90;99.90
34153;DHT22;20426;48.372;10.888;2022-12-22T00:33:26;6.90;99.90
34153;DHT22;20426;48.372;10.888;2022-12-22T00:34:17;6.90;99.90
34153;DHT22;20426;48.372;10.888;2022-12-22T00:35:12;6.90;99.90
34153;DHT22;20426;48.372;10.888;2022-12-22T00:36:03;6.90;99.90
34153;DHT22;20426;48.372;10.888;2022-12-22T00:36:53;6.90;99.90
34153;DHT22;20426;48.372;10.888;2022-12-22T00:37:43;6.90;99.90
34153;DHT22;20426;48.372;10.888;2022-12-22T00:38:32;6.90;99.90
34153;DHT22;20426;48.372;10.888;2022-12-22T00:39:21;7.00;99.90
34153;DHT22;20426;48.372;10.888;2022-12-22T00:40:21;7.00;99.90
34153;DHT22;20426;48.372;10.888;2022-12-22T00:41:11;7.00;99.90
34153;DHT22;20426;48.372;10.888;2022-12-22T00:42:00;7.00;99.90
34153;DHT22;20426;48.372;10.888;2022-12-22T00:42:49;7.00;99.90
34153;DHT22;20426;48.372;10.888;2022-12-22T00:43:38;7.00;99.90
34153;DHT22;20426;48.372;10.888;2022-12-22T00:44:27;7.00;99.90
34153;DHT22;20426;48.372;10.888;2022-12-22T00:45:16;7.00;99.90
34153;DHT22;20426;48.372;10.888;2022-12-22T00:46:10;7.00;99.90
34153;DHT22;20426;48.372;10.888;2022-12-22T00:47:00;7.10;99.90
34153;DHT22;20426;48.372;10.888;2022-12-22T00:47:50;7.10;99.90
34153;DHT22;20426;48.372;10.888;2022-12-22T00:48:40;7.10;99.90
34153;DHT22;20426;48.372;10.888;2022-12-22T00:49:33;7.10;99.90
34153;DHT22;20426;48.372;10.888;2022-12-22T00:50:30;7.20;99.90
34153;DHT22;20426;48.372;10.888;2022-12-22T00:51:20;7.20;99.90
34153;DHT22;20426;48.372;10.888;2022-12-22T00:52:09;7.20;99.90
34153;DHT22;20426;48.372;10.888;2022-12-22T00:52:59;7.20;99.90
34153;DHT22;20426;48.372;10.888;2022-12-22T00:53:50;7.20;99.90
34153;DHT22;20426;48.372;10.888;2022-12-22T00:54:39;7.20;99.90
34153;DHT22;20426;48.372;10.888;2022-12-22T00:55:29;7.20;99.90
34153;DHT22;20426;48.372;10.888;2022-12-22T00:56:20;7.20;99.90
34153;DHT22;20426;48.372;10.888;2022-12-22T00:57:16;7.30;99.90
34153;DHT22;20426;48.372;10.888;2022-12-22T00:58:13;7.30;99.90
34153;DHT22;20426;48.372;10.888;2022-12-22T00:59:02;7.30;99.90
34153;DHT22;20426;48.372;10.888;2022-12-22T00:59:53;7.30;99.90
34153;DHT22;20426;48.372;10.888;2022-12-22T01:00:43;7.30;99.90
34153;DHT22;20426;48.372;10.888;2022-12-22T01:01:32;7.30;99.90
34153;DHT22;20426;48.372;10.888;2022-12-22T01:02:21;7.30;99.90
34153;DHT22;20426;48.372;10.888;2022-12-22T01:03:10;7.30;99.90
34153;DHT22;20426;48.372;10.888;2022-12-22T01:04:00;7.30;99.90
34153;DHT22;20426;48.372;10.888;2022-12-22T01:04:49;7.30;99.90
34153;DHT22;20426;48.372;10.888;2022-12-22T01:05:38;7.30;99.90
34153;DHT22;20426;48.372;10.888;2022-12-22T01:06:30;7.30;99.90
34153;DHT22;20426;48.372;10.888;2022-12-22T01:07:21;7.30;99.90
34153;DHT22;20426;48.372;10.888;2022-12-22T01:08:11;7.30;99.90
34153;DHT22;20426;48.372;10.888;2022-12-22T01:09:01;7.30;99.90
34153;DHT22;20426;48.372;10.888;2022-12-22T01:09:52;7.30;99.90
34153;DHT22;20426;48.372;10.888;2022-12-22T01:10:41;7.30;99.90
34153;DHT22;20426;48.372;10.888;2022-12-22T01:11:32;7.30;99.90
34153;DHT22;20426;48.372;10.888;2022-12-22T01:12:23;7.30;99.90
34153;DHT22;20426;48.372;10.888;2022-12-22T01:13:14;7.30;99.90
34153;DHT22;20426;48.372;10.888;2022-12-22T01:14:09;7.30;99.90
34153;DHT22;20426;48.372;10.888;2022-12-22T01:14:58;7.30;99.90
34153;DHT22;20426;48.372;10.888;2022-12-22T01:15:47;7.30;99.90
34153;DHT22;20426;48.372;10.888;2022-12-22T01:16:36;7.20;99.90
34153;DHT22;20426;48.372;10.888;2022-12-22T01:17:25;7.20;99.90
34153;DHT22;20426;48.372;10.888;2022-12-22T01:18:14;7.20;99.90
34153;DHT22;20426;48.372;10.888;2022-12-22T01:19:04;7.20;99.90
34153;DHT22;20426;48.372;10.888;2022-12-22T01:19:53;7.20;99.90
34153;DHT22;20426;48.372;10.888;2022-12-22T01:20:42;7.20;99.90
34153;DHT22;20426;48.372;10.888;2022-12-22T01:21:31;7.20;99.90
34153;DHT22;20426;48.372;10.888;2022-12-22T01:22:21;7.20;99.90
34153;DHT22;20426;48.372;10.888;2022-12-22T01:23:10;7.20;99.90
34153;DHT22;20426;48.372;10.888;2022-12-22T01:23:59;7.20;99.90
34153;DHT22;20426;48.372;10.888;2022-12-22T01:24:49;7.30;99.90
34153;DHT22;20426;48.372;10.888;2022-12-22T01:25:38;7.20;99.90
34153;DHT22;20426;48.372;10.888;2022-12-22T01:26:28;7.30;99.90
34153;DHT22;20426;48.372;10.888;2022-12-22T01:27:17;7.30;99.90
34153;DHT22;20426;48.372;10.888;2022-12-22T01:28:13;7.30;99.90
34153;DHT22;20426;48.372;10.888;2022-12-22T01:29:02;7.30;99.90
34153;DHT22;20426;48.372;10.888;2022-12-22T01:29:51;7.30;99.90
34153;DHT22;20426;48.372;10.888;2022-12-22T01:30:41;7.30;99.90
34153;DHT22;20426;48.372;10.888;2022-12-22T01:31:32;7.30;99.90
34153;DHT22;20426;48.372;10.888;2022-12-22T01:32:22;7.40;99.90
34153;DHT22;20426;48.372;10.888;2022-12-22T01:33:12;7.40;99.90
34153;DHT22;20426;48.372;10.888;2022-12-22T01:34:02;7.40;99.90
34153;DHT22;20426;48.372;10.888;2022-12-22T01:34:51;7.40;99.90
34153;DHT22;20426;48.372;10.888;2022-12-22T01:35:40;7.40;99.90
34153;DHT22;20426;48.372;10.888;2022-12-22T01:36:30;7.30;99.90
34153;DHT22;20426;48.372;10.888;2022-12-22T01:37:19;7.30;99.90
34153;DHT22;20426;48.372;10.888;2022-12-22T01:38:08;7.30;99.90
34153;DHT22;20426;48.372;10.888;2022-12-22T01:38:57;7.30;99.90
34153;DHT22;20426;48.372;10.888;2022-12-22T01:39:46;7.30;99.90
34153;DHT22;20426;48.372;10.888;2022-12-22T01:40:35;7.30;99.90
34153;DHT22;20426;48.372;10.888;2022-12-22T01:41:25;7.30;99.90
34153;DHT22;20426;48.372;10.888;2022-12-22T01:42:15;7.30;99.90
34153;DHT22;20426;48.372;10.888;2022-12-22T01:43:23;7.20;99.90
34153;DHT22;20426;48.372;10.888;2022-12-22T01:44:15;7.20;99.90
34153;DHT22;20426;48.372;10.888;2022-12-22T01:45:24;7.20;99.90
34153;DHT22;20426;48.372;10.888;2022-12-22T01:48:20;7.10;99.90
34153;DHT22;20426;48.372;10.888;2022-12-22T01:49:34;7.10;99.90
34153;DHT22;20426;48.372;10.888;2022-12-22T01:50:34;7.10;99.90
34153;DHT22;20426;48.372;10.888;2022-12-22T01:51:26;7.10;99.90
34153;DHT22;20426;48.372;10.888;2022-12-22T01:52:18;7.10;99.90
34153;DHT22;20426;48.372;10.888;2022-12-22T01:53:11;7.00;99.90
34153;DHT22;20426;48.372;10.888;2022-12-22T01:54:03;7.00;99.90
34153;DHT22;20426;48.372;10.888;2022-12-22T01:54:53;7.00;99.90
34153;DHT22;20426;48.372;10.888;2022-12-22T01:55:43;7.00;99.90
34153;DHT22;20426;48.372;10.888;2022-12-22T01:56:33;7.00;99.90
34153;DHT22;20426;48.372;10.888;2022-12-22T01:57:22;7.10;99.90
34153;DHT22;20426;48.372;10.888;2022-12-22T01:58:26;7.10;99.90
34153;DHT22;20426;48.372;10.888;2022-12-22T01:59:17;7.20;99.90
34153;DHT22;20426;48.372;10.888;2022-12-22T02:00:06;7.20;99.90
34153;DHT22;20426;48.372;10.888;2022-12-22T02:00:56;7.20;99.90
34153;DHT22;20426;48.372;10.888;2022-12-22T02:01:45;7.20;99.90
34153;DHT22;20426;48.372;10.888;2022-12-22T02:02:34;7.30;99.90
34153;DHT22;20426;48.372;10.888;2022-12-22T02:03:23;7.30;99.90
34153;DHT22;20426;48.372;10.888;2022-12-22T02:04:13;7.30;99.90
34153;DHT22;20426;48.372;10.888;2022-12-22T02:05:04;7.30;99.90
34153;DHT22;20426;48.372;10.888;2022-12-22T02:07:05;7.30;99.90
34153;DHT22;20426;48.372;10.888;2022-12-22T02:08:24;7.40;99.90
34153;DHT22;20426;48.372;10.888;2022-12-22T02:09:44;7.40;99.90
34153;DHT22;20426;48.372;10.888;2022-12-22T02:11:48;7.30;99.90
34153;DHT22;20426;48.372;10.888;2022-12-22T02:15:23;7.30;99.90
34153;DHT22;20426;48.372;10.888;2022-12-22T02:16:16;7.30;99.90
34153;DHT22;20426;48.372;10.888;2022-12-22T02:17:23;7.30;99.90
34153;DHT22;20426;48.372;10.888;2022-12-22T02:21:27;7.40;99.90
34153;DHT22;20426;48.372;10.888;2022-12-22T02:22:30;7.40;99.90
34153;DHT22;20426;48.372;10.888;2022-12-22T02:23:38;7.50;99.90
34153;DHT22;20426;48.372;10.888;2022-12-22T02:24:38;7.50;99.90
34153;DHT22;20426;48.372;10.888;2022-12-22T02:25:52;7.50;99.90
34153;DHT22;20426;48.372;10.888;2022-12-22T02:26:49;7.50;99.90
34153;DHT22;20426;48.372;10.888;2022-12-22T02:27:40;7.50;99.90
34153;DHT22;20426;48.372;10.888;2022-12-22T02:28:31;7.60;99.90
34153;DHT22;20426;48.372;10.888;2022-12-22T02:29:30;7.60;99.90
34153;DHT22;20426;48.372;10.888;2022-12-22T02:30:20;7.60;99.90
34153;DHT22;20426;48.372;10.888;2022-12-22T02:31:09;7.60;99.90
34153;DHT22;20426;48.372;10.888;2022-12-22T02:31:58;7.60;99.90
34153;DHT22;20426;48.372;10.888;2022-12-22T02:32:48;7.60;99.90
34153;DHT22;20426;48.372;10.888;2022-12-22T02:33:37;7.60;99.90
34153;DHT22;20426;48.372;10.888;2022-12-22T02:34:26;7.70;99.90
34153;DHT22;20426;48.372;10.888;2022-12-22T02:35:16;7.70;99.90
34153;DHT22;20426;48.372;10.888;2022-12-22T02:37:18;7.70;99.90
34153;DHT22;20426;48.372;10.888;2022-12-22T02:38:48;7.70;99.90
34153;DHT22;20426;48.372;10.888;2022-12-22T02:40:01;7.70;99.90
34153;DHT22;20426;48.372;10.888;2022-12-22T02:43:04;7.80;99.90
34153;DHT22;20426;48.372;10.888;2022-12-22T02:45:12;7.80;99.90
34153;DHT22;20426;48.372;10.888;2022-12-22T02:46:14;7.80;99.90
34153;DHT22;20426;48.372;10.888;2022-12-22T02:47:19;7.80;99.90
34153;DHT22;20426;48.372;10.888;2022-12-22T02:48:51;7.90;99.90
34153;DHT22;20426;48.372;10.888;2022-12-22T02:50:10;7.90;99.90
34153;DHT22;20426;48.372;10.888;2022-12-22T02:51:18;7.90;99.90
34153;DHT22;20426;48.372;10.888;2022-12-22T02:52:26;7.80;99.90
34153;DHT22;20426;48.372;10.888;2022-12-22T02:53:18;7.80;99.90
34153;DHT22;20426;48.372;10.888;2022-12-22T02:54:08;7.80;99.90
34153;DHT22;20426;48.372;10.888;2022-12-22T02:54:58;7.80;99.90
34153;DHT22;20426;48.372;10.888;2022-12-22T02:55:47;7.80;99.90
34153;DHT22;20426;48.372;10.888;2022-12-22T02:56:37;7.80;99.90
34153;DHT22;20426;48.372;10.888;2022-12-22T02:57:27;7.90;99.90
34153;DHT22;20426;48.372;10.888;2022-12-22T02:58:17;7.90;99.90
34153;DHT22;20426;48.372;10.888;2022-12-22T02:59:06;7.90;99.90
34153;DHT22;20426;48.372;10.888;2022-12-22T02:59:55;7.90;99.90
34153;DHT22;20426;48.372;10.888;2022-12-22T03:00:45;7.90;99.90
34153;DHT22;20426;48.372;10.888;2022-12-22T03:01:34;7.90;99.90
34153;DHT22;20426;48.372;10.888;2022-12-22T03:02:24;7.90;99.90
34153;DHT22;20426;48.372;10.888;2022-12-22T03:03:13;7.90;99.90
34153;DHT22;20426;48.372;10.888;2022-12-22T03:04:03;7.90;99.90
34153;DHT22;20426;48.372;10.888;2022-12-22T03:04:52;7.90;99.90
34153;DHT22;20426;48.372;10.888;2022-12-22T03:05:41;7.90;99.90
34153;DHT22;20426;48.372;10.888;2022-12-22T03:06:31;8.00;99.90
34153;DHT22;20426;48.372;10.888;2022-12-22T03:07:20;8.00;99.90
34153;DHT22;20426;48.372;10.888;2022-12-22T03:08:09;8.00;99.90
34153;DHT22;20426;48.372;10.888;2022-12-22T03:08:59;8.00;99.90
34153;DHT22;20426;48.372;10.888;2022-12-22T03:09:48;8.00;99.90
34153;DHT22;20426;48.372;10.888;2022-12-22T03:10:37;8.00;99.90
34153;DHT22;20426;48.372;10.888;2022-12-22T03:11:26;8.00;99.90
34153;DHT22;20426;48.372;10.888;2022-12-22T03:12:15;8.00;99.90
34153;DHT22;20426;48.372;10.888;2022-12-22T03:13:04;8.00;99.90
34153;DHT22;20426;48.372;10.888;2022-12-22T03:13:53;8.00;99.90
34153;DHT22;20426;48.372;10.888;2022-12-22T03:14:42;8.00;99.90
34153;DHT22;20426;48.372;10.888;2022-12-22T03:15:31;8.00;99.90
34153;DHT22;20426;48.372;10.888;2022-12-22T03:16:21;8.00;99.90
34153;DHT22;20426;48.372;10.888;2022-12-22T03:17:10;8.00;99.90
34153;DHT22;20426;48.372;10.888;2022-12-22T03:18:04;8.10;99.90
34153;DHT22;20426;48.372;10.888;2022-12-22T03:18:53;8.00;99.90
34153;DHT22;20426;48.372;10.888;2022-12-22T03:19:42;8.00;99.90
34153;DHT22;20426;48.372;10.888;2022-12-22T03:20:32;8.00;99.90
34153;DHT22;20426;48.372;10.888;2022-12-22T03:21:20;8.00;99.90
34153;DHT22;20426;48.372;10.888;2022-12-22T03:22:09;8.00;99.90
34153;DHT22;20426;48.372;10.888;2022-12-22T03:23:05;8.00;99.90
34153;DHT22;20426;48.372;10.888;2022-12-22T03:23:55;8.00;99.90
34153;DHT22;20426;48.372;10.888;2022-12-22T03:24:44;8.00;99.90
34153;DHT22;20426;48.372;10.888;2022-12-22T03:25:34;8.00;99.90
34153;DHT22;20426;48.372;10.888;2022-12-22T03:26:20;8.00;99.90
34153;DHT22;20426;48.372;10.888;2022-12-22T03:26:50;8.00;99.90
34153;DHT22;20426;48.372;10.888;2022-12-22T03:27:21;8.00;99.90
34153;DHT22;20426;48.372;10.888;2022-12-22T03:27:52;8.00;99.90
34153;DHT22;20426;48.372;10.888;2022-12-22T03:28:27;8.00;99.90
34153;DHT22;20426;48.372;10.888;2022-12-22T03:28:58;8.00;99.90
34153;DHT22;20426;48.372;10.888;2022-12-22T03:29:28;8.00;99.90
34153;DHT22;20426;48.372;10.888;2022-12-22T03:29:59;8.00;99.90
34153;DHT22;20426;48.372;10.888;2022-12-22T03:30:30;8.00;99.90
34153;DHT22;20426;48.372;10.888;2022-12-22T03:31:03;8.00;99.90
34153;DHT22;20426;48.372;10.888;2022-12-22T03:31:34;8.00;99.90
34153;DHT22;20426;48.372;10.888;2022-12-22T03:32:05;8.10;99.90
34153;DHT22;20426;48.372;10.888;2022-12-22T03:32:36;8.10;99.90
34153;DHT22;20426;48.372;10.888;2022-12-22T03:33:07;8.10;99.90
34153;DHT22;20426;48.372;10.888;2022-12-22T03:33:38;8.10;99.90
34153;DHT22;20426;48.372;10.888;2022-12-22T03:34:08;8.10;99.90
34153;DHT22;20426;48.372;10.888;2022-12-22T03:34:39;8.10;99.90
34153;DHT22;20426;48.372;10.888;2022-12-22T03:35:10;8.10;99.90
34153;DHT22;20426;48.372;10.888;2022-12-22T03:35:42;8.10;99.90
34153;DHT22;20426;48.372;10.888;2022-12-22T03:36:13;8.10;99.90
34153;DHT22;20426;48.372;10.888;2022-12-22T03:36:44;8.10;99.90
34153;DHT22;20426;48.372;10.888;2022-12-22T03:37:15;8.10;99.90
34153;DHT22;20426;48.372;10.888;2022-12-22T03:37:45;8.10;99.90
34153;DHT22;20426;48.372;10.888;2022-12-22T03:38:16;8.10;99.90
34153;DHT22;20426;48.372;10.888;2022-12-22T03:38:47;8.10;99.90
34153;DHT22;20426;48.372;10.888;2022-12-22T03:39:18;8.10;99.90
34153;DHT22;20426;48.372;10.888;2022-12-22T03:39:48;8.10;99.90
34153;DHT22;20426;48.372;10.888;2022-12-22T03:40:19;8.10;99.90
34153;DHT22;20426;48.372;10.888;2022-12-22T03:40:50;8.10;99.90
34153;DHT22;20426;48.372;10.888;2022-12-22T03:41:20;8.10;99.90
34153;DHT22;20426;48.372;10.888;2022-12-22T03:42:11;8.10;99.90
34153;DHT22;20426;48.372;10.888;2022-12-22T03:43:00;8.10;99.90
34153;DHT22;20426;48.372;10.888;2022-12-22T03:43:53;8.10;99.90
34153;DHT22;20426;48.372;10.888;2022-12-22T03:44:42;8.10;99.90
34153;DHT22;20426;48.372;10.888;2022-12-22T03:45:31;8.10;99.90
34153;DHT22;20426;48.372;10.888;2022-12-22T03:46:21;8.10;99.90
34153;DHT22;20426;48.372;10.888;2022-12-22T03:47:00;8.10;99.90
34153;DHT22;20426;48.372;10.888;2022-12-22T03:47:31;8.10;99.90
34153;DHT22;20426;48.372;10.888;2022-12-22T03:48:02;8.10;99.90
34153;DHT22;20426;48.372;10.888;2022-12-22T03:48:33;8.10;99.90
34153;DHT22;20426;48.372;10.888;2022-12-22T03:49:04;8.10;99.90
34153;DHT22;20426;48.372;10.888;2022-12-22T03:49:40;8.10;99.90
34153;DHT22;20426;48.372;10.888;2022-12-22T03:50:11;8.10;99.90
34153;DHT22;20426;48.372;10.888;2022-12-22T03:50:42;8.10;99.90
34153;DHT22;20426;48.372;10.888;2022-12-22T03:51:13;8.00;99.90
34153;DHT22;20426;48.372;10.888;2022-12-22T03:51:46;8.00;99.90
34153;DHT22;20426;48.372;10.888;2022-12-22T03:52:17;8.10;99.90
34153;DHT22;20426;48.372;10.888;2022-12-22T03:52:48;8.10;99.90
34153;DHT22;20426;48.372;10.888;2022-12-22T03:53:18;8.10;99.90
34153;DHT22;20426;48.372;10.888;2022-12-22T03:53:49;8.10;99.90
34153;DHT22;20426;48.372;10.888;2022-12-22T03:54:22;8.10;99.90
34153;DHT22;20426;48.372;10.888;2022-12-22T03:54:52;8.10;99.90
34153;DHT22;20426;48.372;10.888;2022-12-22T03:55:23;8.10;99.90
34153;DHT22;20426;48.372;10.888;2022-12-22T03:55:54;8.10;99.90
34153;DHT22;20426;48.372;10.888;2022-12-22T03:56:25;8.10;99.90
34153;DHT22;20426;48.372;10.888;2022-12-22T03:56:57;8.00;99.90
34153;DHT22;20426;48.372;10.888;2022-12-22T03:57:27;8.00;99.90
34153;DHT22;20426;48.372;10.888;2022-12-22T03:57:58;8.00;99.90
34153;DHT22;20426;48.372;10.888;2022-12-22T03:58:29;8.10;99.90
34153;DHT22;20426;48.372;10.888;2022-12-22T03:58:59;8.10;99.90
34153;DHT22;20426;48.372;10.888;2022-12-22T03:59:30;8.10;99.90
34153;DHT22;20426;48.372;10.888;2022-12-22T04:00:01;8.10;99.90
34153;DHT22;20426;48.372;10.888;2022-12-22T04:00:32;8.10;99.90
34153;DHT22;20426;48.372;10.888;2022-12-22T04:01:06;8.10;99.90
34153;DHT22;20426;48.372;10.888;2022-12-22T04:01:48;8.10;99.90
34153;DHT22;20426;48.372;10.888;2022-12-22T04:02:19;8.10;99.90
34153;DHT22;20426;48.372;10.888;2022-12-22T04:02:50;8.10;99.90
34153;DHT22;20426;48.372;10.888;2022-12-22T04:03:21;8.10;99.90
34153;DHT22;20426;48.372;10.888;2022-12-22T04:03:51;8.10;99.90
34153;DHT22;20426;48.372;10.888;2022-12-22T04:04:24;8.10;99.90
34153;DHT22;20426;48.372;10.888;2022-12-22T04:04:55;8.10;99.90
34153;DHT22;20426;48.372;10.888;2022-12-22T04:05:27;8.10;99.90
34153;DHT22;20426;48.372;10.888;2022-12-22T04:05:58;8.10;99.90
34153;DHT22;20426;48.372;10.888;2022-12-22T04:06:28;8.10;99.90
34153;DHT22;20426;48.372;10.888;2022-12-22T04:06:59;8.10;99.90
34153;DHT22;20426;48.372;10.888;2022-12-22T04:07:30;8.20;99.90
34153;DHT22;20426;48.372;10.888;2022-12-22T04:08:00;8.20;99.90
34153;DHT22;20426;48.372;10.888;2022-12-22T04:08:31;8.20;99.90
34153;DHT22;20426;48.372;10.888;2022-12-22T04:09:02;8.20;99.90
34153;DHT22;20426;48.372;10.888;2022-12-22T04:09:33;8.20;99.90
34153;DHT22;20426;48.372;10.888;2022-12-22T04:10:04;8.20;99.90
34153;DHT22;20426;48.372;10.888;2022-12-22T04:10:53;8.20;99.90
34153;DHT22;20426;48.372;10.888;2022-12-22T04:11:43;8.20;99.90
34153;DHT22;20426;48.372;10.888;2022-12-22T04:12:32;8.20;99.90
34153;DHT22;20426;48.372;10.888;2022-12-22T04:13:21;8.20;99.90
34153;DHT22;20426;48.372;10.888;2022-12-22T04:13:52;8.30;99.90
34153;DHT22;20426;48.372;10.888;2022-12-22T04:14:23;8.30;99.90
34153;DHT22;20426;48.372;10.888;2022-12-22T04:14:54;8.30;99.90
34153;DHT22;20426;48.372;10.888;2022-12-22T04:15:27;8.30;99.90
34153;DHT22;20426;48.372;10.888;2022-12-22T04:15:58;8.30;99.90
34153;DHT22;20426;48.372;10.888;2022-12-22T04:16:29;8.30;99.90
34153;DHT22;20426;48.372;10.888;2022-12-22T04:17:04;8.30;99.90
34153;DHT22;20426;48.372;10.888;2022-12-22T04:17:34;8.30;99.90
34153;DHT22;20426;48.372;10.888;2022-12-22T04:18:05;8.30;99.90
34153;DHT22;20426;48.372;10.888;2022-12-22T04:18:36;8.30;99.90
34153;DHT22;20426;48.372;10.888;2022-12-22T04:19:07;8.40;99.90
34153;DHT22;20426;48.372;10.888;2022-12-22T04:19:38;8.40;99.90
34153;DHT22;20426;48.372;10.888;2022-12-22T04:20:09;8.30;99.90
34153;DHT22;20426;48.372;10.888;2022-12-22T04:20:39;8.40;99.90
34153;DHT22;20426;48.372;10.888;2022-12-22T04:21:10;8.30;99.90
34153;DHT22;20426;48.372;10.888;2022-12-22T04:21:42;8.30;99.90
34153;DHT22;20426;48.372;10.888;2022-12-22T04:22:13;8.40;99.90
34153;DHT22;20426;48.372;10.888;2022-12-22T04:22:45;8.40;99.90
34153;DHT22;20426;48.372;10.888;2022-12-22T04:23:16;8.40;99.90
34153;DHT22;20426;48.372;10.888;2022-12-22T04:23:46;8.40;99.90
34153;DHT22;20426;48.372;10.888;2022-12-22T04:24:20;8.40;99.90
34153;DHT22;20426;48.372;10.888;2022-12-22T04:24:51;8.40;99.90
34153;DHT22;20426;48.372;10.888;2022-12-22T04:25:23;8.50;99.90
34153;DHT22;20426;48.372;10.888;2022-12-22T04:25:54;8.50;99.90
34153;DHT22;20426;48.372;10.888;2022-12-22T04:26:25;8.50;99.90
34153;DHT22;20426;48.372;10.888;2022-12-22T04:26:56;8.50;99.90
34153;DHT22;20426;48.372;10.888;2022-12-22T04:27:26;8.50;99.90
34153;DHT22;20426;48.372;10.888;2022-12-22T04:27:57;8.50;99.90
34153;DHT22;20426;48.372;10.888;2022-12-22T04:28:28;8.50;99.90
34153;DHT22;20426;48.372;10.888;2022-12-22T04:28:58;8.50;99.90
34153;DHT22;20426;48.372;10.888;2022-12-22T04:29:29;8.50;99.90
34153;DHT22;20426;48.372;10.888;2022-12-22T04:30:00;8.50;99.90
34153;DHT22;20426;48.372;10.888;2022-12-22T04:30:30;8.50;99.90
34153;DHT22;20426;48.372;10.888;2022-12-22T04:31:01;8.50;99.90
34153;DHT22;20426;48.372;10.888;2022-12-22T04:31:32;8.50;99.90
34153;DHT22;20426;48.372;10.888;2022-12-22T04:32:03;8.50;99.90
34153;DHT22;20426;48.372;10.888;2022-12-22T04:32:34;8.50;99.90
34153;DHT22;20426;48.372;10.888;2022-12-22T04:33:04;8.50;99.90
34153;DHT22;20426;48.372;10.888;2022-12-22T04:33:35;8.60;99.90
34153;DHT22;20426;48.372;10.888;2022-12-22T04:34:06;8.60;99.90
34153;DHT22;20426;48.372;10.888;2022-12-22T04:34:36;8.60;99.90
34153;DHT22;20426;48.372;10.888;2022-12-22T04:35:08;8.60;99.90
34153;DHT22;20426;48.372;10.888;2022-12-22T04:35:39;8.60;99.90
34153;DHT22;20426;48.372;10.888;2022-12-22T04:36:10;8.60;99.90
34153;DHT22;20426;48.372;10.888;2022-12-22T04:36:41;8.60;99.90
34153;DHT22;20426;48.372;10.888;2022-12-22T04:37:11;8.60;99.90
34153;DHT22;20426;48.372;10.888;2022-12-22T04:37:42;8.70;99.90
34153;DHT22;20426;48.372;10.888;2022-12-22T04:38:13;8.70;99.90
34153;DHT22;20426;48.372;10.888;2022-12-22T04:38:44;8.70;99.90
34153;DHT22;20426;48.372;10.888;2022-12-22T04:39:14;8.70;99.90
34153;DHT22;20426;48.372;10.888;2022-12-22T04:39:45;8.70;99.90
34153;DHT22;20426;48.372;10.888;2022-12-22T04:40:16;8.70;99.90
34153;DHT22;20426;48.372;10.888;2022-12-22T04:40:47;8.70;99.90
34153;DHT22;20426;48.372;10.888;2022-12-22T04:41:17;8.70;99.90
34153;DHT22;20426;48.372;10.888;2022-12-22T04:41:48;8.70;99.90
34153;DHT22;20426;48.372;10.888;2022-12-22T04:42:19;8.70;99.90
34153;DHT22;20426;48.372;10.888;2022-12-22T04:42:49;8.70;99.90
34153;DHT22;20426;48.372;10.888;2022-12-22T04:43:20;8.70;99.90
34153;DHT22;20426;48.372;10.888;2022-12-22T04:43:51;8.70;99.90
34153;DHT22;20426;48.372;10.888;2022-12-22T04:44:22;8.70;99.90
34153;DHT22;20426;48.372;10.888;2022-12-22T04:44:52;8.70;99.90
34153;DHT22;20426;48.372;10.888;2022-12-22T04:45:23;8.70;99.90
34153;DHT22;20426;48.372;10.888;2022-12-22T04:45:55;8.70;99.90
34153;DHT22;20426;48.372;10.888;2022-12-22T04:46:25;8.70;99.90
34153;DHT22;20426;48.372;10.888;2022-12-22T04:46:56;8.70;99.90
34153;DHT22;20426;48.372;10.888;2022-12-22T04:47:27;8.70;99.90
34153;DHT22;20426;48.372;10.888;2022-12-22T04:47:58;8.70;99.90
34153;DHT22;20426;48.372;10.888;2022-12-22T04:48:29;8.70;99.90
34153;DHT22;20426;48.372;10.888;2022-12-22T04:49:00;8.70;99.90
34153;DHT22;20426;48.372;10.888;2022-12-22T04:49:31;8.70;99.90
34153;DHT22;20426;48.372;10.888;2022-12-22T04:50:02;8.70;99.90
34153;DHT22;20426;48.372;10.888;2022-12-22T04:50:33;8.70;99.90
34153;DHT22;20426;48.372;10.888;2022-12-22T04:51:04;8.70;99.90
34153;DHT22;20426;48.372;10.888;2022-12-22T04:51:35;8.70;99.90
34153;DHT22;20426;48.372;10.888;2022-12-22T04:52:05;8.70;99.90